createdAt,value
2022-10-18T04:03:35.124Z,99630.81
2022-10-18T04:07:46.676Z,99647.41
2022-10-18T04:11:58.210Z,99653.66
2022-10-18T04:16:09.713Z,99653.19
2022-10-18T04:20:21.242Z,99655.13
2022-10-18T04:24:33.030Z,99652.78
2022-10-18T04:28:45.144Z,99649.75
2022-10-18T04:32:56.716Z,99656.59
2022-10-18T04:37:08.310Z,99649.59
2022-10-18T04:41:19.840Z,99662.41
2022-10-18T04:45:31.375Z,99665.16
2022-10-18T04:49:42.920Z,99659.72
2022-10-18T04:53:54.907Z,99655.06
2022-10-18T04:58:06.428Z,99643.56
2022-10-18T05:02:17.978Z,99629.41
2022-10-18T05:06:29.557Z,99618.50
2022-10-18T05:10:41.100Z,99612.59
2022-10-18T05:14:52.618Z,99608.03
2022-10-18T05:19:05.660Z,99626.47
2022-10-18T05:23:17.208Z,99636.75
2022-10-18T05:27:29.200Z,99651.06
2022-10-18T05:31:40.705Z,99663.78
2022-10-18T05:35:52.198Z,99663.78
2022-10-18T05:40:04.311Z,99672.28
2022-10-18T05:44:15.895Z,99667.84
2022-10-18T05:48:27.542Z,99668.69
2022-10-18T05:52:39.054Z,99684.84
2022-10-18T05:56:50.608Z,99674.31
2022-10-18T06:01:03.122Z,99685.66
2022-10-18T06:05:14.648Z,99686.28
2022-10-18T06:09:26.321Z,99694.66
2022-10-18T06:13:45.980Z,99695.94
2022-10-18T06:17:59.021Z,99703.47
2022-10-18T06:22:11.505Z,99701.50
2022-10-18T06:26:23.398Z,99696.13
2022-10-18T06:30:35.141Z,99703.31
2022-10-18T06:34:46.637Z,99702.03
2022-10-18T06:38:59.904Z,99713.19
2022-10-18T06:43:20.652Z,99713.81
2022-10-18T06:47:33.012Z,99722.53
2022-10-18T06:51:44.659Z,99728.47
2022-10-18T06:56:14.324Z,99736.81
2022-10-18T07:00:25.995Z,99735.47
2022-10-18T07:04:37.593Z,99742.66
2022-10-18T07:08:50.265Z,99749.47
2022-10-18T07:13:30.482Z,99755.50
2022-10-18T07:17:33.481Z,99752.59
2022-10-18T07:21:45.157Z,99752.41
2022-10-18T07:25:56.708Z,99761.97
2022-10-18T07:30:10.036Z,99761.13
2022-10-18T07:34:21.539Z,99765.97
2022-10-18T07:38:33.318Z,99776.94
2022-10-18T07:42:44.818Z,99771.06
2022-10-18T07:46:56.296Z,99775.31
2022-10-18T07:51:08.874Z,99779.44
2022-10-18T07:55:20.772Z,99776.94
2022-10-18T07:59:32.468Z,99777.06
2022-10-18T08:03:44.191Z,99793.97
2022-10-18T08:07:56.212Z,99796.22
2022-10-18T08:12:07.733Z,99803.16
2022-10-18T08:16:27.656Z,99812.06
2022-10-18T08:20:44.240Z,99810.88
2022-10-18T08:24:55.763Z,99797.16
2022-10-18T08:29:21.875Z,99816.38
2022-10-18T08:33:36.250Z,99820.44
2022-10-18T08:37:48.485Z,99825.38
2022-10-18T08:42:12.199Z,99828.94
2022-10-18T08:46:24.531Z,99831.34
2022-10-18T08:50:37.763Z,99831.63
2022-10-18T08:55:00.053Z,99834.47
2022-10-18T08:59:12.900Z,99831.66
2022-10-18T09:03:56.733Z,99830.66
2022-10-18T09:08:41.579Z,99829.81
2022-10-18T09:13:02.223Z,99818.97
2022-10-18T09:17:54.152Z,99830.75
2022-10-18T09:22:13.920Z,99834.28
2022-10-18T09:26:25.984Z,99843.28
2022-10-18T09:30:37.454Z,99841.06
2022-10-18T09:34:59.648Z,99835.34
2022-10-18T09:39:14.410Z,99835.09
2022-10-18T09:43:42.252Z,99826.47
2022-10-18T09:48:05.526Z,99827.38
2022-10-18T09:52:28.227Z,99838.44
2022-10-18T09:56:52.227Z,99844.31
2022-10-18T10:01:04.038Z,99842.44
2022-10-18T10:05:15.766Z,99847.09
2022-10-18T10:09:36.051Z,99844.06
2022-10-18T10:13:48.444Z,99849.34
2022-10-18T10:18:06.079Z,99852.75
2022-10-18T10:22:35.157Z,99857.09
2022-10-18T10:26:47.259Z,99861.19
2022-10-18T10:31:29.356Z,99860.41
2022-10-18T10:35:53.047Z,99855.72
2022-10-18T10:40:24.073Z,99854.44
2022-10-18T10:44:36.975Z,99844.88
2022-10-18T10:49:21.669Z,99840.47
2022-10-18T10:53:50.640Z,99843.91
2022-10-18T10:58:02.363Z,99846.97
2022-10-18T11:02:13.958Z,99847.59
2022-10-18T11:06:33.789Z,99852.44
2022-10-18T11:10:57.307Z,99856.34
2022-10-18T11:15:12.007Z,99858.59
2022-10-18T11:19:39.159Z,99859.63
2022-10-18T11:23:51.304Z,99850.28
2022-10-18T11:28:11.361Z,99851.53
2022-10-18T11:32:38.164Z,99847.47
2022-10-18T11:37:29.078Z,99850.28
2022-10-18T11:41:53.915Z,99848.66
2022-10-18T11:46:24.002Z,99850.69
2022-10-18T11:50:50.611Z,99852.91
2022-10-18T11:55:10.906Z,99852.25
2022-10-18T11:59:32.450Z,99844.06
2022-10-18T12:04:18.049Z,99846.06
2022-10-18T12:08:39.928Z,99834.22
2022-10-18T12:13:02.040Z,99835.81
2022-10-18T12:17:47.467Z,99835.41
2022-10-18T12:22:27.963Z,99837.16
2022-10-18T12:26:40.136Z,99833.66
2022-10-18T12:31:02.284Z,99835.28
2022-10-18T12:35:19.161Z,99820.88
2022-10-18T12:39:43.835Z,99820.72
2022-10-18T12:44:16.769Z,99820.56
2022-10-18T12:48:43.187Z,99821.00
2022-10-18T12:53:09.868Z,99821.94
2022-10-18T12:57:24.347Z,99820.56
2022-10-18T13:01:51.145Z,99811.38
2022-10-18T13:06:06.652Z,99809.75
2022-10-18T13:10:18.352Z,99811.75
2022-10-18T13:14:44.132Z,99809.75
2022-10-18T13:19:23.286Z,99809.91
2022-10-18T13:24:28.578Z,99800.34
2022-10-18T13:28:51.041Z,99799.53
2022-10-18T13:33:31.361Z,99803.81
2022-10-18T13:37:42.862Z,99807.09
2022-10-18T13:41:57.743Z,99804.69
2022-10-18T13:46:09.584Z,99818.13
2022-10-18T13:50:34.128Z,99812.44
2022-10-18T13:55:22.484Z,99808.16
2022-10-18T14:00:11.542Z,99810.97
2022-10-18T14:04:42.348Z,99812.81
2022-10-18T14:09:03.355Z,99809.97
2022-10-18T14:13:26.480Z,99822.34
2022-10-18T14:17:46.823Z,99817.91
2022-10-18T14:22:09.365Z,99823.34
2022-10-18T14:26:21.002Z,99820.69
2022-10-18T14:30:32.494Z,99822.28
2022-10-18T14:34:44.435Z,99821.47
2022-10-18T14:39:04.747Z,99824.84
2022-10-18T14:43:19.860Z,99816.09
2022-10-18T14:47:33.684Z,99821.97
2022-10-18T14:51:49.879Z,99824.22
2022-10-18T14:56:05.744Z,99824.19
2022-10-18T15:00:25.721Z,99820.34
2022-10-18T15:04:37.259Z,99816.03
2022-10-18T15:08:54.124Z,99817.59
2022-10-18T15:13:10.310Z,99815.53
2022-10-18T15:17:28.418Z,99819.56
2022-10-18T15:21:59.151Z,99824.34
2022-10-18T15:26:24.433Z,99824.66
2022-10-18T15:30:35.882Z,99820.69
2022-10-18T15:34:47.486Z,99821.00
2022-10-18T15:39:17.639Z,99826.78
2022-10-18T15:43:29.064Z,99822.31
2022-10-18T15:47:56.243Z,99819.41
2022-10-18T15:52:07.745Z,99825.28
2022-10-18T15:56:32.723Z,99818.72
2022-10-18T16:00:45.680Z,99814.38
2022-10-18T16:04:59.887Z,99817.56
2022-10-18T16:09:22.789Z,99810.53
2022-10-18T16:13:34.850Z,99818.47
2022-10-18T16:17:47.773Z,99812.16
2022-10-18T16:22:06.090Z,99817.81
2022-10-18T16:26:19.741Z,99806.28
2022-10-18T16:30:34.110Z,99810.38
2022-10-18T16:34:45.636Z,99803.84
2022-10-18T16:38:58.895Z,99804.38
2022-10-18T16:43:10.676Z,99805.41
2022-10-18T16:47:22.203Z,99810.88
2022-10-18T16:51:33.756Z,99818.78
2022-10-18T16:55:45.507Z,99817.78
2022-10-18T16:59:57.298Z,99820.59
2022-10-18T17:04:08.839Z,99826.06
2022-10-18T17:08:23.617Z,99834.72
2022-10-18T17:12:35.305Z,99838.53
2022-10-18T17:16:50.758Z,99840.00
2022-10-18T17:21:06.187Z,99836.94
2022-10-18T17:25:18.927Z,99839.47
2022-10-18T17:29:30.455Z,99835.84
2022-10-18T17:33:42.226Z,99845.56
2022-10-18T17:37:53.762Z,99850.38
2022-10-18T17:42:05.259Z,99850.28
2022-10-18T17:46:17.783Z,99848.72
2022-10-18T17:50:29.379Z,99851.63
2022-10-18T17:54:40.919Z,99849.88
2022-10-18T17:58:52.807Z,99861.50
2022-10-18T18:03:04.354Z,99856.13
2022-10-18T18:07:15.865Z,99857.31
2022-10-18T18:11:28.749Z,99868.91
2022-10-18T18:15:40.256Z,99867.66
2022-10-18T18:19:51.794Z,99869.97
2022-10-18T18:24:03.480Z,99865.88
2022-10-18T18:28:15.539Z,99862.78
2022-10-18T18:32:27.071Z,99869.41
2022-10-18T18:36:39.167Z,99867.41
2022-10-18T18:40:50.855Z,99869.06
2022-10-18T18:45:02.572Z,99862.13
2022-10-18T18:49:14.236Z,99867.41
2022-10-18T18:53:28.689Z,99858.06
2022-10-18T18:57:41.475Z,99867.41
2022-10-18T19:01:53.105Z,99862.84
2022-10-18T19:06:06.817Z,99863.69
2022-10-18T19:10:18.327Z,99859.94
2022-10-18T19:14:29.845Z,99864.25
2022-10-18T19:18:41.334Z,99863.31
2022-10-18T19:22:53.560Z,99863.31
2022-10-18T19:27:12.569Z,99863.00
2022-10-18T19:31:24.304Z,99852.28
2022-10-18T19:35:35.839Z,99851.16
2022-10-18T19:39:47.323Z,99854.13
2022-10-18T19:43:58.842Z,99856.41
2022-10-18T19:48:13.325Z,99857.88
2022-10-18T19:52:25.097Z,99850.34
2022-10-18T19:56:36.616Z,99854.25
2022-10-18T20:00:52.806Z,99854.78
2022-10-18T20:05:04.721Z,99857.44
2022-10-18T20:09:19.575Z,99858.44
2022-10-18T20:13:32.866Z,99850.34
2022-10-18T20:17:44.455Z,99852.50
2022-10-18T20:21:57.590Z,99856.50
2022-10-18T20:26:18.018Z,99851.38
2022-10-18T20:30:31.478Z,99850.31
2022-10-18T20:34:42.963Z,99851.59
2022-10-18T20:38:54.986Z,99847.03
2022-10-18T20:43:06.583Z,99842.63
2022-10-18T20:47:18.111Z,99840.84
2022-10-18T20:51:29.703Z,99849.41
2022-10-18T20:55:42.696Z,99847.41
2022-10-18T20:59:54.216Z,99845.78
2022-10-18T21:04:08.870Z,99835.59
2022-10-18T21:08:20.359Z,99836.59
2022-10-18T21:12:32.155Z,99843.50
2022-10-18T21:16:44.121Z,99841.69
2022-10-18T21:20:55.871Z,99839.25
2022-10-18T21:25:08.022Z,99841.56
2022-10-18T21:29:22.176Z,99835.63
